Archival Weather

Granbury Rgnl

Granbury, Texas (KGDJ)

Report from: Monday, January 29, 2024 6:15 PM UTC
Current time: Tuesday, June 18, 2024 11:33 AM UTC

Current weather – Weather history – Daily summaries
Weather forecast

Temperature19.7°C (67.5°F)
Dew point3.4°C (38.1°F)
Winds 8 kts (4.1 m/s, 9.2 mph) Northwest (320°)
Visibility10 mi. (16.1 km)
Clouds Sky clear
Altimeter30.30 in.Hg (1026 mB)
Relative humidity34 %
Density altitude238 ft. (73 m)
Remarks Fully automated report
Automated weather observing station with precipitation discriminator
Flight conditions Visual Meteorological Conditions
Raw dataKGDJ 291815Z AUTO 32008KT 10SM CLR 20/03 A3030 RMK AO2 T01970034
An error has occurred. This application may no longer respond until reloaded. Reload 🗙